Time;durP1;ratioP1;P1;durP2;ratioP2;P2;SDS_P1;SDS_P2;PMS_P1;PMS_P2;Temp;Humidity;BMP_temperature;BMP_pressure;BME280_temperature;BME280_humidity;BME280_pressure;Samples;Min_cycle;Max_cycle;Signal;HPM_P1;HPM_P2
2021/09/22 00:00:51;;;;;;;;;2.25;2.25;;;;;11.80;67.08;101240.09;5132092;27;10580;-75
2021/09/22 00:03:46;;;;;;;;;4.00;2.50;;;;;11.82;67.59;101245.34;5132541;27;10420;-74
2021/09/22 00:06:42;;;;;;;;;3.00;3.00;;;;;11.91;67.31;101235.06;5133935;27;11233;-75
2021/09/22 00:09:37;;;;;;;;;2.00;2.00;;;;;11.86;67.14;101238.81;5134714;27;10580;-74
2021/09/22 00:12:33;;;;;;;;;2.25;2.25;;;;;11.95;67.01;101231.31;5117760;27;10648;-74
2021/09/22 00:15:29;;;;;;;;;3.25;3.25;;;;;11.96;67.20;101232.97;5117190;28;10545;-73
2021/09/22 00:18:24;;;;;;;;;3.00;2.00;;;;;11.98;66.32;101231.81;5117291;28;10502;-75
2021/09/22 00:21:20;;;;;;;;;3.00;3.00;;;;;12.02;65.99;101224.47;5117283;28;10264;-74
2021/09/22 00:24:16;;;;;;;;;3.00;3.00;;;;;11.91;66.18;101224.78;5118883;27;10314;-74
2021/09/22 00:27:12;;;;;;;;;3.00;3.00;;;;;11.92;66.50;101222.84;5137113;27;10354;-74
2021/09/22 00:30:09;;;;;;;;;2.25;2.25;;;;;11.94;66.06;101217.78;5137584;27;10224;-75
2021/09/22 00:33:08;;;;;;;;;2.50;2.50;;;;;11.84;66.73;101224.47;5123186;27;10451;-74
2021/09/22 00:36:04;;;;;;;;;5.25;4.50;;;;;12.03;66.78;101215.81;5130802;27;10372;-74
2021/09/22 00:38:59;;;;;;;;;3.75;3.75;;;;;11.94;66.42;101228.88;5116781;27;10399;-75
2021/09/22 00:41:55;;;;;;;;;3.25;3.25;;;;;12.02;66.35;101216.13;5117639;27;10376;-75
2021/09/22 00:44:53;;;;;;;;;4.00;4.00;;;;;11.84;67.05;101218.13;5116641;28;10463;-75
2021/09/22 00:47:49;;;;;;;;;3.25;3.25;;;;;11.89;66.50;101221.56;5117397;28;10489;-74
2021/09/22 00:50:47;;;;;;;;;5.00;5.00;;;;;11.91;66.84;101215.66;5115128;28;10205;-74
2021/09/22 00:53:43;;;;;;;;;4.00;4.00;;;;;11.93;66.97;101224.47;5137686;27;10620;-74
2021/09/22 00:56:39;;;;;;;;;4.25;4.25;;;;;11.88;67.19;101221.84;5157314;27;11555;-74
2021/09/22 00:59:35;;;;;;;;;7.00;7.00;;;;;11.87;67.12;101218.25;5171689;27;10491;-73
2021/09/22 01:02:30;;;;;;;;;3.50;3.50;;;;;11.93;66.92;101219.72;5163803;27;10461;-74
2021/09/22 01:05:27;;;;;;;;;3.75;3.75;;;;;11.90;67.59;101211.28;5164123;27;10406;-75
2021/09/22 01:08:23;;;;;;;;;4.75;4.75;;;;;12.04;67.07;101216.63;5158060;27;10582;-75
2021/09/22 01:11:19;;;;;;;;;5.00;5.00;;;;;11.88;67.72;101208.81;5156833;27;11456;-75
2021/09/22 01:14:19;;;;;;;;;4.00;4.00;;;;;11.94;67.58;101218.59;5168795;27;10459;-75
2021/09/22 01:17:19;;;;;;;;;4.00;4.00;;;;;11.96;67.35;101216.31;5177720;27;11168;-74
2021/09/22 01:20:15;;;;;;;;;4.00;4.00;;;;;11.96;67.75;101218.25;5177484;27;10567;-74
2021/09/22 01:23:11;;;;;;;;;6.00;6.00;;;;;12.15;66.67;101215.97;5177550;27;10586;-76
2021/09/22 01:26:07;;;;;;;;;4.00;4.00;;;;;12.10;66.60;101207.00;5167054;27;10573;-75
2021/09/22 01:29:03;;;;;;;;;3.00;3.00;;;;;12.03;66.81;101212.22;5177392;27;11270;-76
2021/09/22 01:31:59;;;;;;;;;3.00;3.00;;;;;12.01;66.87;101201.47;5163503;27;10579;-76
2021/09/22 01:34:54;;;;;;;;;3.00;3.00;;;;;12.08;66.82;101207.34;5161345;27;10693;-77
2021/09/22 01:37:51;;;;;;;;;4.75;4.75;;;;;12.01;67.09;101211.75;5152148;27;10420;-74
2021/09/22 01:41:05;;;;;;;;;3.25;3.00;;;;;11.94;67.50;101207.50;5153052;27;10530;-73
2021/09/22 01:44:01;;;;;;;;;2.25;2.25;;;;;11.87;67.57;101206.38;5152512;27;10605;-75
2021/09/22 01:46:56;;;;;;;;;4.00;4.00;;;;;11.97;67.38;101217.16;5164621;27;10348;-74
2021/09/22 01:49:59;;;;;;;;;0.00;0.00;;;;;11.92;67.15;101208.97;5163608;27;10383;-74
2021/09/22 01:52:54;;;;;;;;;3.00;3.00;;;;;11.92;67.89;101207.03;5165199;27;10300;-74
2021/09/22 01:55:55;;;;;;;;;3.25;3.25;;;;;11.94;67.08;101204.72;5165924;27;10403;-73
2021/09/22 01:58:51;;;;;;;;;3.00;3.00;;;;;11.80;67.27;101206.84;5165196;27;10504;-73
2021/09/22 02:01:46;;;;;;;;;8.00;8.00;;;;;11.83;67.61;101211.75;5166345;27;10486;-73
2021/09/22 02:04:44;;;;;;;;;4.75;4.75;;;;;11.89;67.77;101212.41;5150688;27;10811;-74
2021/09/22 02:07:39;;;;;;;;;3.50;3.50;;;;;11.95;67.51;101209.13;5167491;27;10600;-75
2021/09/22 02:10:36;;;;;;;;;7.00;7.00;;;;;12.07;67.30;101218.75;5150681;27;10549;-74
2021/09/22 02:13:33;;;;;;;;;5.00;5.00;;;;;11.98;67.41;101215.19;5168467;27;10567;-73
2021/09/22 02:16:28;;;;;;;;;4.00;4.00;;;;;11.98;67.50;101213.22;5169101;27;10411;-73
2021/09/22 02:19:24;;;;;;;;;7.00;7.00;;;;;11.95;67.77;101219.41;5160300;27;10465;-74
2021/09/22 02:22:20;;;;;;;;;7.00;5.00;;;;;11.95;67.59;101213.84;5169929;27;10661;-73
2021/09/22 02:25:15;;;;;;;;;3.00;3.00;;;;;11.85;67.59;101223.31;5174009;27;10549;-73
2021/09/22 02:28:11;;;;;;;;;4.25;4.25;;;;;11.82;67.94;101221.22;5166234;27;10631;-73
2021/09/22 02:31:07;;;;;;;;;5.00;5.00;;;;;11.88;67.96;101217.13;5172931;27;10555;-73
2021/09/22 02:34:03;;;;;;;;;7.00;5.00;;;;;11.87;68.09;101225.75;5161123;27;10565;-74
2021/09/22 02:36:59;;;;;;;;;8.00;8.00;;;;;11.88;67.87;101219.06;5159712;27;10452;-74
2021/09/22 02:39:55;;;;;;;;;4.50;4.50;;;;;11.81;68.06;101219.59;5155242;27;10629;-73
2021/09/22 02:42:50;;;;;;;;;3.75;3.75;;;;;11.93;67.82;101228.06;5140978;27;10738;-73
2021/09/22 02:45:46;;;;;;;;;3.25;3.25;;;;;11.93;67.90;101225.28;5155066;27;10432;-73
2021/09/22 02:48:42;;;;;;;;;3.00;3.00;;;;;11.98;67.86;101221.53;5154986;27;10651;-74
2021/09/22 02:51:37;;;;;;;;;2.50;2.50;;;;;12.06;67.61;101225.44;5142689;27;10542;-74
2021/09/22 02:54:33;;;;;;;;;4.00;4.00;;;;;11.85;67.76;101220.56;5140127;27;10421;-74
2021/09/22 02:57:28;;;;;;;;;3.50;3.50;;;;;11.98;67.43;101223.50;5128386;27;10587;-73
2021/09/22 03:00:24;;;;;;;;;2.25;2.25;;;;;11.89;67.90;101220.72;5113382;28;10573;-74
2021/09/22 03:03:19;;;;;;;;;0.00;0.00;;;;;11.92;67.81;101222.84;5105256;28;10693;-74
2021/09/22 03:06:15;;;;;;;;;1.75;1.75;;;;;11.72;68.94;101226.22;5133611;27;10259;-74
2021/09/22 03:09:11;;;;;;;;;2.75;2.75;;;;;11.79;68.80;101227.38;5134016;27;11208;-73
2021/09/22 03:12:06;;;;;;;;;3.75;3.25;;;;;11.75;68.67;101223.63;5133504;27;10484;-74
2021/09/22 03:15:03;;;;;;;;;5.00;5.00;;;;;11.84;68.70;101230.00;5119952;27;10643;-73
2021/09/22 03:17:59;;;;;;;;;4.00;4.00;;;;;11.86;68.57;101229.69;5134243;27;10564;-74
2021/09/22 03:20:54;;;;;;;;;5.50;5.50;;;;;11.87;68.15;101221.03;5133636;27;10516;-73
2021/09/22 03:23:50;;;;;;;;;7.50;7.50;;;;;11.91;68.20;101218.44;5133385;27;10663;-73
2021/09/22 03:26:45;;;;;;;;;3.50;3.50;;;;;11.87;67.86;101223.81;5133265;27;10705;-73
2021/09/22 03:29:41;;;;;;;;;5.50;5.50;;;;;11.94;68.02;101224.13;5113463;28;10677;-74
2021/09/22 03:32:37;;;;;;;;;3.75;3.75;;;;;11.90;68.33;101231.50;5099218;28;10565;-75
2021/09/22 03:35:32;;;;;;;;;7.75;7.75;;;;;11.88;68.03;101219.88;5099246;28;10729;-74
2021/09/22 03:38:28;;;;;;;;;3.25;3.25;;;;;11.81;68.01;101225.13;5112901;28;10636;-74
2021/09/22 03:41:24;;;;;;;;;6.00;6.00;;;;;11.79;68.39;101224.59;5113460;28;10395;-74
2021/09/22 03:44:19;;;;;;;;;4.00;4.00;;;;;11.85;68.63;101234.41;5124271;27;10670;-74
2021/09/22 03:47:15;;;;;;;;;4.75;4.75;;;;;11.81;68.51;101236.22;5133234;27;10551;-74
2021/09/22 03:50:11;;;;;;;;;7.75;7.75;;;;;11.88;68.64;101228.19;5133375;27;10444;-75
2021/09/22 03:53:07;;;;;;;;;3.50;3.50;;;;;11.61;68.64;101232.09;5128447;27;10721;-73
2021/09/22 03:56:17;;;;;;;;;4.75;4.75;;;;;11.71;69.21;101222.63;5125771;27;10603;-74
2021/09/22 03:59:14;;;;;;;;;3.75;3.75;;;;;11.85;68.66;101220.56;5135251;27;10518;-74
2021/09/22 04:02:09;;;;;;;;;3.25;3.25;;;;;11.76;69.03;101219.72;5153697;27;10565;-74
2021/09/22 04:05:05;;;;;;;;;4.25;4.25;;;;;11.75;69.18;101218.09;5146161;27;10745;-73
2021/09/22 04:08:01;;;;;;;;;6.00;6.00;;;;;11.77;69.31;101215.81;5153049;27;10748;-75
2021/09/22 04:10:57;;;;;;;;;5.50;5.50;;;;;11.80;68.63;101215.16;5153916;27;10691;-73
2021/09/22 04:13:52;;;;;;;;;4.00;4.00;;;;;11.82;68.63;101221.22;5139679;27;10729;-74
2021/09/22 04:16:48;;;;;;;;;7.25;7.25;;;;;11.91;68.35;101213.72;5139755;27;10628;-74
2021/09/22 04:19:43;;;;;;;;;4.00;4.00;;;;;12.00;68.18;101216.47;5137977;27;10687;-74
2021/09/22 04:22:39;;;;;;;;;6.25;6.25;;;;;12.06;67.59;101217.94;5153449;27;10589;-73
2021/09/22 04:25:35;;;;;;;;;5.50;5.50;;;;;11.93;67.67;101221.69;5137834;27;10477;-74
2021/09/22 04:28:30;;;;;;;;;9.75;9.50;;;;;11.80;68.73;101212.41;5142311;27;10524;-75
2021/09/22 04:31:26;;;;;;;;;6.00;6.00;;;;;11.98;68.07;101220.72;5153192;27;10584;-74
2021/09/22 04:34:22;;;;;;;;;3.50;3.50;;;;;12.09;67.71;101222.81;5152021;27;10545;-74
2021/09/22 04:37:18;;;;;;;;;6.50;6.50;;;;;12.13;67.51;101228.53;5142190;27;10584;-76
2021/09/22 04:40:15;;;;;;;;;3.75;3.75;;;;;12.17;67.42;101223.94;5119003;27;10664;-76
2021/09/22 04:43:10;;;;;;;;;5.50;5.50;;;;;12.25;67.42;101223.13;5132495;27;10378;-76
2021/09/22 04:46:06;;;;;;;;;7.75;7.75;;;;;12.28;67.22;101225.25;5132508;27;10316;-76
2021/09/22 04:49:02;;;;;;;;;7.25;7.25;;;;;12.37;67.42;101226.03;5132334;27;10656;-77
2021/09/22 04:51:58;;;;;;;;;12.50;12.50;;;;;12.33;67.49;101225.06;5119280;27;10574;-77
2021/09/22 04:54:53;;;;;;;;;4.75;4.75;;;;;12.39;66.54;101223.75;5152254;27;10587;-77
2021/09/22 04:57:49;;;;;;;;;4.75;4.75;;;;;12.45;66.44;101218.84;5156008;27;10401;-76
2021/09/22 05:00:45;;;;;;;;;4.75;4.75;;;;;12.39;66.54;101220.97;5143328;27;10428;-77
2021/09/22 05:03:40;;;;;;;;;3.25;3.25;;;;;12.46;66.91;101224.06;5143129;27;10430;-77
2021/09/22 05:06:36;;;;;;;;;2.00;2.00;;;;;12.51;65.86;101221.09;5156848;27;10411;-77
2021/09/22 05:09:32;;;;;;;;;3.75;3.75;;;;;12.39;66.20;101217.38;5156111;27;10517;-76
2021/09/22 05:12:28;;;;;;;;;4.00;4.00;;;;;12.42;66.24;101217.56;5155799;27;10432;-76
2021/09/22 05:15:23;;;;;;;;;3.00;3.00;;;;;12.53;66.20;101218.81;5156759;27;10348;-76
2021/09/22 05:18:19;;;;;;;;;4.25;4.25;;;;;12.49;66.22;101217.84;5156774;27;10264;-77
2021/09/22 05:21:15;;;;;;;;;4.00;4.00;;;;;12.57;65.55;101218.13;5156472;27;10313;-77
2021/09/22 05:24:11;;;;;;;;;5.00;5.00;;;;;12.60;65.78;101218.31;5156767;27;10242;-77
2021/09/22 05:27:08;;;;;;;;;3.00;3.00;;;;;12.55;65.86;101224.03;5156414;27;10198;-77
2021/09/22 05:30:04;;;;;;;;;4.75;4.75;;;;;12.45;65.59;101219.66;5156710;27;10208;-76
2021/09/22 05:33:00;;;;;;;;;8.50;8.25;;;;;12.61;65.49;101224.66;5156369;27;10262;-76
2021/09/22 05:35:55;;;;;;;;;4.50;4.50;;;;;12.65;65.56;101223.69;5156113;27;10335;-76
2021/09/22 05:38:51;;;;;;;;;10.00;6.00;;;;;12.60;65.60;101228.59;5156399;27;10186;-76
2021/09/22 05:41:46;;;;;;;;;5.50;4.50;;;;;12.79;64.97;101231.78;5142314;27;10459;-77
2021/09/22 05:44:42;;;;;;;;;6.50;6.50;;;;;12.75;65.16;101226.09;5156130;27;10380;-76
2021/09/22 05:47:37;;;;;;;;;5.00;5.00;;;;;12.97;64.63;101227.78;5156125;27;10350;-77
2021/09/22 05:50:33;;;;;;;;;4.00;4.00;;;;;12.94;63.83;101228.44;5156170;27;10377;-76
2021/09/22 05:53:28;;;;;;;;;3.50;3.50;;;;;12.91;63.88;101226.34;5142292;27;10219;-77
2021/09/22 05:56:24;;;;;;;;;4.00;4.00;;;;;12.90;64.21;101223.91;5155791;27;10272;-77
2021/09/22 05:59:20;;;;;;;;;4.00;4.00;;;;;12.96;63.72;101225.34;5156099;27;10929;-77
2021/09/22 06:02:15;;;;;;;;;5.25;5.25;;;;;13.00;63.62;101217.97;5155857;27;10152;-77
2021/09/22 06:05:11;;;;;;;;;4.25;4.25;;;;;13.09;62.44;101214.00;5155842;27;10142;-77
2021/09/22 06:08:08;;;;;;;;;4.00;4.00;;;;;13.16;62.25;101218.22;5155455;27;10148;-77
2021/09/22 06:11:04;;;;;;;;;5.00;5.00;;;;;13.30;62.21;101219.63;5155419;27;10191;-76
2021/09/22 06:13:59;;;;;;;;;5.25;5.25;;;;;13.42;61.07;101223.63;5156344;27;10078;-76
2021/09/22 06:16:55;;;;;;;;;3.50;3.50;;;;;13.49;60.99;101232.25;5155580;27;9880;-77
2021/09/22 06:19:50;;;;;;;;;3.25;3.25;;;;;13.63;60.35;101227.25;5155838;27;10007;-77
2021/09/22 06:22:46;;;;;;;;;2.50;2.50;;;;;13.93;60.33;101213.25;5155729;27;9997;-77
2021/09/22 06:25:42;;;;;;;;;68.00;41.75;;;;;13.83;59.63;101228.41;5155200;27;10017;-77
2021/09/22 06:28:37;;;;;;;;;5.25;5.25;;;;;14.10;60.22;101229.78;5141332;27;11627;-76
2021/09/22 06:31:36;;;;;;;;;4.75;4.75;;;;;14.28;58.91;101231.25;5155808;27;9974;-75
2021/09/22 06:34:32;;;;;;;;;5.00;5.00;;;;;14.14;59.04;101230.75;5155368;27;9760;-77
2021/09/22 06:37:27;;;;;;;;;3.00;3.00;;;;;14.22;58.95;101238.19;5155212;27;9822;-77
2021/09/22 06:40:24;;;;;;;;;57.00;33.25;;;;;14.20;58.53;101237.72;5141550;27;9835;-77
2021/09/22 06:43:19;;;;;;;;;6.75;6.75;;;;;14.18;58.58;101242.78;5142993;27;10344;-77
2021/09/22 06:46:15;;;;;;;;;5.00;5.00;;;;;14.24;58.47;101237.84;5161314;27;9600;-76
2021/09/22 06:49:11;;;;;;;;;4.25;3.75;;;;;14.14;57.72;101242.69;5159606;27;10023;-77
2021/09/22 06:52:07;;;;;;;;;5.00;5.00;;;;;14.08;58.65;101249.59;5175540;27;9754;-78
2021/09/22 06:55:03;;;;;;;;;4.50;4.50;;;;;14.10;58.60;101249.25;5175614;27;10606;-78
2021/09/22 06:57:59;;;;;;;;;4.25;4.25;;;;;14.00;59.26;101250.50;5174909;27;9578;-77
2021/09/22 07:00:54;;;;;;;;;4.00;4.00;;;;;13.91;58.45;101258.09;5175460;27;9810;-77
2021/09/22 07:03:50;;;;;;;;;3.50;3.50;;;;;14.00;58.29;101252.47;5176270;27;9738;-77
2021/09/22 07:06:45;;;;;;;;;5.00;5.00;;;;;14.07;58.75;101255.50;5175551;27;9673;-78
2021/09/22 07:09:41;;;;;;;;;7.00;4.50;;;;;14.13;58.44;101248.59;5175392;27;9817;-78
2021/09/22 07:12:37;;;;;;;;;5.25;5.25;;;;;14.06;58.88;101245.53;5175557;27;9947;-78
2021/09/22 07:15:33;;;;;;;;;10.75;7.25;;;;;14.09;57.22;101245.66;5175168;27;9709;-77
2021/09/22 07:18:28;;;;;;;;;5.75;5.75;;;;;14.31;57.32;101244.47;5175047;27;10002;-78
2021/09/22 07:21:25;;;;;;;;;5.00;5.00;;;;;14.34;57.19;101238.25;5175299;27;9905;-78
2021/09/22 07:24:20;;;;;;;;;4.00;4.00;;;;;14.36;56.95;101247.06;5175134;27;9722;-78
2021/09/22 07:27:16;;;;;;;;;5.75;5.75;;;;;14.21;58.17;101249.66;5175077;27;9666;-78
2021/09/22 07:30:16;;;;;;;;;4.00;4.00;;;;;14.24;57.51;101243.41;5174053;27;9815;-78
2021/09/22 07:33:11;;;;;;;;;10.00;9.75;;;;;14.19;58.72;101239.69;5175008;27;9787;-78
2021/09/22 07:36:07;;;;;;;;;4.50;4.50;;;;;14.02;57.62;101250.97;5174871;27;9895;-78
2021/09/22 07:39:03;;;;;;;;;5.75;5.75;;;;;14.09;57.73;101244.84;5174849;27;9797;-78
2021/09/22 07:41:58;;;;;;;;;8.50;8.50;;;;;14.10;58.36;101250.06;5174678;27;9892;-78
2021/09/22 07:44:54;;;;;;;;;6.75;6.75;;;;;14.17;58.06;101244.75;5174831;27;9889;-78
2021/09/22 07:47:50;;;;;;;;;4.25;4.25;;;;;14.16;58.33;101245.13;5174818;27;9921;-77
2021/09/22 07:50:46;;;;;;;;;3.25;3.25;;;;;14.21;58.09;101242.13;5174542;27;9668;-77
2021/09/22 07:53:41;;;;;;;;;4.50;4.50;;;;;14.30;56.61;101242.03;5174580;27;9589;-77
2021/09/22 07:56:37;;;;;;;;;5.75;5.75;;;;;14.21;56.23;101233.78;5174628;27;9648;-77
2021/09/22 07:59:33;;;;;;;;;4.75;4.75;;;;;14.30;55.81;101234.50;5160776;27;9650;-77
2021/09/22 08:02:29;;;;;;;;;3.50;3.50;;;;;14.08;55.90;101230.13;5175496;27;9696;-77
2021/09/22 08:05:25;;;;;;;;;4.75;4.75;;;;;14.23;56.37;101231.47;5173736;27;9497;-77
2021/09/22 08:08:21;;;;;;;;;5.25;5.25;;;;;14.41;56.03;101227.34;5174604;27;9708;-77
2021/09/22 08:11:18;;;;;;;;;4.00;4.00;;;;;14.48;56.63;101226.00;5174802;27;9824;-78
2021/09/22 08:14:14;;;;;;;;;7.00;6.50;;;;;14.46;56.62;101224.38;5173786;27;9802;-77
2021/09/22 08:17:12;;;;;;;;;5.75;5.75;;;;;14.03;56.79;101224.78;5174731;27;9575;-77
2021/09/22 08:20:09;;;;;;;;;8.50;8.50;;;;;14.25;57.39;101225.56;5174217;27;9513;-77
2021/09/22 08:23:04;;;;;;;;;4.00;4.00;;;;;14.17;56.34;101222.50;5174146;27;9906;-77
2021/09/22 08:26:00;;;;;;;;;3.00;3.00;;;;;14.14;56.42;101223.22;5161434;27;9823;-77
2021/09/22 08:28:57;;;;;;;;;3.75;3.75;;;;;14.13;55.12;101220.78;5160426;27;9652;-76
2021/09/22 08:31:52;;;;;;;;;2.75;2.75;;;;;14.15;55.53;101221.25;5164034;27;9746;-77
2021/09/22 08:34:48;;;;;;;;;4.00;4.00;;;;;14.22;55.38;101218.72;5178270;27;9694;-77
2021/09/22 08:37:44;;;;;;;;;4.50;4.50;;;;;14.34;56.12;101212.38;5178386;27;9822;-77
2021/09/22 08:40:39;;;;;;;;;3.00;3.00;;;;;14.57;54.44;101216.41;5179332;27;9816;-75
2021/09/22 08:43:37;;;;;;;;;3.75;3.75;;;;;14.80;53.63;101215.94;5165164;27;9728;-76
2021/09/22 08:46:39;;;;;;;;;0.50;0.50;;;;;14.94;52.03;101208.88;5178268;27;10325;-75
2021/09/22 08:49:36;;;;;;;;;2.00;2.00;;;;;15.23;51.25;101209.81;5163946;27;10214;-76
2021/09/22 08:52:31;;;;;;;;;2.33;2.33;;;;;15.26;50.26;101206.34;5177858;27;10019;-78
2021/09/22 08:55:27;;;;;;;;;3.00;3.00;;;;;15.29;49.89;101202.84;5177899;27;10129;-78
2021/09/22 08:58:23;;;;;;;;;2.00;2.00;;;;;15.17;49.77;101200.88;5178003;27;9210;-75
2021/09/22 09:01:21;;;;;;;;;2.00;2.00;;;;;14.81;50.03;101203.69;5177810;27;9137;-74
2021/09/22 09:04:19;;;;;;;;;1.67;1.67;;;;;15.11;51.08;101193.94;5163857;27;9188;-75
2021/09/22 09:07:15;;;;;;;;;3.00;3.00;;;;;15.50;50.70;101189.56;5177959;27;9303;-76
2021/09/22 09:10:10;;;;;;;;;3.00;3.00;;;;;15.66;49.52;101192.47;5177727;27;9064;-75
2021/09/22 09:13:09;;;;;;;;;2.33;2.33;;;;;15.69;49.13;101188.97;5163691;27;9228;-74
2021/09/22 09:16:16;;;;;;;;;2.00;2.00;;;;;15.85;49.32;101191.81;5177715;27;9895;-77
2021/09/22 09:19:22;;;;;;;;;1.75;1.75;;;;;16.50;49.07;101189.63;5177613;27;9145;-77
2021/09/22 09:22:17;;;;;;;;;2.75;2.75;;;;;16.69;46.73;101186.13;5178083;27;8842;-77
2021/09/22 09:25:22;;;;;;;;;2.00;2.00;;;;;16.79;46.02;101185.63;5177567;27;8902;-77
2021/09/22 09:28:28;;;;;;;;;2.25;2.25;;;;;17.03;46.45;101186.59;5177744;27;8823;-77
2021/09/22 09:31:32;;;;;;;;;1.00;1.00;;;;;16.55;44.48;101174.56;5178378;27;8845;-77
2021/09/22 09:34:27;;;;;;;;;2.00;2.00;;;;;16.91;44.82;101179.09;5177329;27;9598;-76
2021/09/22 09:37:44;;;;;;;;;2.00;2.00;;;;;16.67;44.86;101174.50;5177238;27;8815;-76
2021/09/22 09:40:39;;;;;;;;;2.00;2.00;;;;;17.33;43.81;101178.47;5177242;27;8838;-76
2021/09/22 09:43:46;;;;;;;;;1.75;1.75;;;;;16.78;44.70;101175.59;5175734;27;9564;-77
2021/09/22 09:46:42;;;;;;;;;2.50;2.50;;;;;16.59;45.71;101169.91;5177099;27;8868;-75
2021/09/22 09:49:40;;;;;;;;;1.00;1.00;;;;;16.24;44.96;101172.56;5175962;27;8815;-74
2021/09/22 09:52:53;;;;;;;;;1.50;1.50;;;;;16.12;46.16;101173.44;5170507;27;8854;-75
2021/09/22 09:55:49;;;;;;;;;1.00;1.00;;;;;15.48;46.32;101182.72;5166548;27;8835;-77
2021/09/22 09:58:48;;;;;;;;;1.00;1.00;;;;;15.39;47.72;101179.25;5160369;27;8826;-77
2021/09/22 10:01:55;;;;;;;;;1.00;1.00;;;;;15.43;48.38;101185.75;5141852;27;8919;-76
2021/09/22 10:04:51;;;;;;;;;1.00;1.00;;;;;15.67;48.11;101185.72;5146988;27;8912;-73
2021/09/22 10:07:49;;;;;;;;;1.67;1.67;;;;;15.55;48.28;101171.78;5162586;27;8978;-77
2021/09/22 10:10:46;;;;;;;;;2.00;2.00;;;;;15.46;48.66;101171.09;5176632;27;9340;-76
2021/09/22 10:13:42;;;;;;;;;1.67;1.67;;;;;15.38;48.25;101166.47;5175840;27;9227;-77
2021/09/22 10:16:37;;;;;;;;;2.00;2.00;;;;;15.67;48.24;101169.00;5155857;27;9134;-74
2021/09/22 10:19:34;;;;;;;;;1.33;1.33;;;;;15.62;47.93;101160.88;5158646;27;9207;-76
2021/09/22 10:22:31;;;;;;;;;3.00;3.00;;;;;15.88;46.88;101160.44;5176264;27;9074;-77
2021/09/22 10:25:27;;;;;;;;;1.00;1.00;;;;;15.94;46.60;101155.38;5176283;27;9357;-75
2021/09/22 10:28:35;;;;;;;;;1.00;1.00;;;;;16.14;46.54;101154.38;5161885;27;9073;-75
2021/09/22 10:31:35;;;;;;;;;1.67;1.67;;;;;16.26;47.03;101148.72;5162927;27;9146;-75
2021/09/22 10:34:36;;;;;;;;;1.00;1.00;;;;;16.00;46.62;101146.41;5155181;27;9133;-76
2021/09/22 10:37:34;;;;;;;;;2.33;2.33;;;;;16.39;46.96;101155.00;5141438;27;8983;-76
2021/09/22 10:40:33;;;;;;;;;2.00;2.00;;;;;16.46;47.01;101155.19;5154898;27;9166;-75
2021/09/22 10:43:30;;;;;;;;;3.33;3.33;;;;;16.72;46.10;101148.31;5155177;27;8849;-75
2021/09/22 10:46:30;;;;;;;;;2.00;0.75;;;;;16.70;44.78;101154.25;5159833;27;8999;-76
2021/09/22 10:49:36;;;;;;;;;12.75;8.00;;;;;16.67;45.25;101155.75;5153522;27;8981;-75
2021/09/22 10:52:38;;;;;;;;;0.25;0.25;;;;;16.59;45.85;101151.16;5163576;27;8925;-75
2021/09/22 10:55:54;;;;;;;;;0.75;0.00;;;;;16.50;45.84;101141.34;5140690;27;8947;-74
2021/09/22 10:58:31;;;;;;;;;2.25;2.25;;;;;16.60;46.90;101144.41;5149751;27;8827;-74
2021/09/22 11:01:39;;;;;;;;;2.00;2.00;;;;;16.74;46.39;101143.16;5156270;27;8871;-74
2021/09/22 11:04:57;;;;;;;;;3.00;3.00;;;;;16.84;46.80;101148.19;5162639;27;8854;-75
2021/09/22 11:07:53;;;;;;;;;1.50;1.50;;;;;16.94;46.34;101142.88;5158644;27;8940;-74
2021/09/22 11:10:54;;;;;;;;;2.00;2.00;;;;;16.99;46.03;101146.56;5155376;27;8881;-75
2021/09/22 11:13:50;;;;;;;;;1.00;1.00;;;;;16.88;46.42;101144.31;5154516;27;8953;-75
2021/09/22 11:16:47;;;;;;;;;1.75;1.75;;;;;17.02;45.91;101145.81;5140321;27;8963;-72
2021/09/22 11:19:49;;;;;;;;;1.25;1.25;;;;;16.89;45.95;101137.56;5148239;27;8868;-72
2021/09/22 11:22:44;;;;;;;;;1.00;1.00;;;;;16.94;45.91;101148.47;5160360;27;8815;-72
2021/09/22 11:25:40;;;;;;;;;2.00;2.00;;;;;16.74;46.82;101134.78;5165812;27;8813;-73
2021/09/22 11:28:36;;;;;;;;;2.00;2.00;;;;;16.62;46.80;101147.63;5140432;27;8809;-73
2021/09/22 11:31:36;;;;;;;;;2.00;2.00;;;;;16.42;46.66;101147.91;5161958;27;8839;-74
2021/09/22 11:34:32;;;;;;;;;2.00;2.00;;;;;16.36;47.05;101137.00;5149354;27;8846;-73
2021/09/22 11:37:35;;;;;;;;;3.25;3.25;;;;;16.33;47.21;101139.69;5170924;27;8912;-73
2021/09/22 11:40:32;;;;;;;;;2.00;2.00;;;;;16.17;47.21;101131.31;5157481;27;8867;-74
2021/09/22 11:43:28;;;;;;;;;4.00;4.00;;;;;16.15;47.75;101138.44;5174661;27;8877;-74
2021/09/22 11:46:24;;;;;;;;;3.00;3.00;;;;;16.08;47.57;101125.91;5175186;27;8995;-74
2021/09/22 11:49:19;;;;;;;;;3.00;3.00;;;;;16.03;47.38;101128.16;5161093;27;9063;-75
2021/09/22 11:52:21;;;;;;;;;3.00;3.00;;;;;15.98;47.46;101134.00;5175596;27;8945;-73
2021/09/22 11:55:20;;;;;;;;;1.33;1.33;;;;;15.94;47.69;101138.66;5160136;27;9078;-74
2021/09/22 11:58:19;;;;;;;;;2.00;2.00;;;;;15.85;48.19;101136.03;5174547;27;8987;-74
2021/09/22 12:01:14;;;;;;;;;3.00;3.00;;;;;15.83;47.39;101139.19;5174506;27;8949;-75
2021/09/22 12:04:10;;;;;;;;;1.67;1.67;;;;;15.83;48.27;101143.94;5174725;27;9880;-72
2021/09/22 12:07:07;;;;;;;;;2.00;2.00;;;;;15.58;48.90;101151.56;5166933;27;9000;-72
2021/09/22 12:10:03;;;;;;;;;3.00;3.00;;;;;15.25;48.87;101147.00;5148470;27;9129;-72
2021/09/22 12:13:01;;;;;;;;;2.67;2.67;;;;;15.23;49.88;101149.31;5174286;27;9042;-71
2021/09/22 12:15:58;;;;;;;;;2.33;2.33;;;;;15.39;49.57;101148.59;5153520;27;9335;-71
2021/09/22 12:18:58;;;;;;;;;2.00;2.00;;;;;15.01;50.11;101142.28;5174313;27;9311;-73
2021/09/22 12:21:53;;;;;;;;;2.33;2.33;;;;;14.70;50.56;101144.84;5163667;27;9282;-72
2021/09/22 12:24:50;;;;;;;;;2.50;2.50;;;;;14.80;50.65;101146.34;5164868;27;9206;-72
2021/09/22 12:27:49;;;;;;;;;2.33;2.33;;;;;14.61;50.83;101141.38;5139695;27;9501;-73
2021/09/22 12:30:45;;;;;;;;;2.00;2.00;;;;;14.80;50.96;101141.63;5169017;27;9520;-72
2021/09/22 12:33:42;;;;;;;;;3.50;3.50;;;;;14.86;50.76;101142.16;5167215;27;9612;-73
2021/09/22 12:36:43;;;;;;;;;3.50;2.25;;;;;14.60;51.39;101139.75;5158782;27;9565;-72
2021/09/22 12:39:49;;;;;;;;;2.25;2.25;;;;;14.72;52.44;101123.03;5168472;27;9568;-72
2021/09/22 12:42:48;;;;;;;;;3.67;2.33;;;;;14.82;51.73;101132.91;5158586;27;10316;-72
2021/09/22 12:45:44;;;;;;;;;5.00;3.75;;;;;14.87;51.58;101133.47;5160063;27;9331;-72
2021/09/22 12:48:40;;;;;;;;;1.33;1.33;;;;;14.93;51.52;101129.28;5174024;27;9645;-72
2021/09/22 12:51:47;;;;;;;;;5.50;5.00;;;;;15.02;50.95;101129.97;5169406;27;9386;-72
2021/09/22 12:54:43;;;;;;;;;3.67;3.67;;;;;15.00;50.91;101126.72;5165795;27;9519;-72
2021/09/22 12:57:44;;;;;;;;;1.00;1.00;;;;;15.10;50.93;101121.81;5147437;27;10161;-72
2021/09/22 13:00:49;;;;;;;;;1.67;1.67;;;;;14.87;51.12;101127.88;5172338;27;9291;-70
2021/09/22 13:03:47;;;;;;;;;2.00;2.00;;;;;14.88;51.15;101126.75;5166609;27;9344;-72
2021/09/22 13:06:50;;;;;;;;;2.00;2.00;;;;;14.90;51.26;101127.22;5156691;27;9296;-72
2021/09/22 13:09:45;;;;;;;;;3.00;2.00;;;;;15.07;51.81;101128.13;5152327;27;9280;-71
2021/09/22 13:12:41;;;;;;;;;2.00;2.00;;;;;15.00;51.92;101129.50;5152968;27;9430;-72
2021/09/22 13:15:36;;;;;;;;;3.00;3.00;;;;;14.94;52.33;101128.13;5153760;27;9364;-72
2021/09/22 13:18:32;;;;;;;;;5.00;5.00;;;;;14.89;52.81;101124.78;5163505;27;10118;-71
2021/09/22 13:21:28;;;;;;;;;3.00;3.00;;;;;14.99;53.30;101133.47;5166546;27;9519;-72
2021/09/22 13:24:25;;;;;;;;;4.00;4.00;;;;;15.01;52.26;101127.53;5177368;27;9516;-72
2021/09/22 13:27:22;;;;;;;;;3.00;3.00;;;;;14.93;51.61;101125.69;5168601;27;9427;-71
2021/09/22 13:30:17;;;;;;;;;4.00;4.00;;;;;14.93;51.76;101131.25;5142121;27;9433;-72
2021/09/22 13:33:13;;;;;;;;;3.00;3.00;;;;;14.81;51.16;101131.28;5166172;27;9382;-72
2021/09/22 13:36:09;;;;;;;;;3.50;3.50;;;;;14.72;51.63;101123.03;5177267;27;9376;-72
2021/09/22 13:39:06;;;;;;;;;7.75;7.50;;;;;14.73;52.10;101131.06;5177379;27;9452;-72
2021/09/22 13:42:02;;;;;;;;;3.00;3.00;;;;;14.74;52.72;101124.31;5162344;27;9511;-72
2021/09/22 13:44:58;;;;;;;;;3.00;3.00;;;;;14.72;52.82;101128.59;5177021;27;9513;-73
2021/09/22 13:47:54;;;;;;;;;5.00;5.00;;;;;14.76;51.94;101128.72;5161532;27;9587;-72